Time;durP1;ratioP1;P1;durP2;ratioP2;P2;SDS_P1;SDS_P2;PMS_P1;PMS_P2;Temp;Humidity;BMP_temperature;BMP_pressure;BME280_temperature;BME280_humidity;BME280_pressure;Samples;Min_cycle;Max_cycle;Signal;HPM_P1;HPM_P2
2021/05/23 00:00:33;;;;;;;;;9.50;7.00;;;;;;;;3559178;39;113581;-79
2021/05/23 00:03:00;;;;;;;;;7.75;5.75;;;;;;;;3558046;39;113440;-77
2021/05/23 00:05:29;;;;;;;;;8.00;6.50;;;;;;;;3562135;39;111870;-77
2021/05/23 00:07:56;;;;;;;;;9.50;7.25;;;;;;;;3558375;39;114330;-78
2021/05/23 00:10:22;;;;;;;;;9.00;8.00;;;;;;;;3558973;39;111777;-78
2021/05/23 00:12:49;;;;;;;;;7.00;6.00;;;;;;;;3559247;39;113219;-78
2021/05/23 00:15:17;;;;;;;;;10.75;7.25;;;;;;;;3557872;39;113958;-78
2021/05/23 00:17:43;;;;;;;;;9.50;7.75;;;;;;;;3559362;39;111842;-78
2021/05/23 00:20:10;;;;;;;;;9.25;8.00;;;;;;;;3558047;39;113599;-79
2021/05/23 00:22:37;;;;;;;;;8.50;7.50;;;;;;;;3559502;39;113860;-79
2021/05/23 00:25:03;;;;;;;;;12.50;8.00;;;;;;;;3558021;39;112016;-78
2021/05/23 00:27:30;;;;;;;;;8.00;8.00;;;;;;;;3561746;39;113361;-77
2021/05/23 00:29:56;;;;;;;;;7.25;6.00;;;;;;;;3558553;39;112723;-77
2021/05/23 00:32:22;;;;;;;;;6.75;6.25;;;;;;;;3558885;39;113954;-78
2021/05/23 00:34:48;;;;;;;;;9.25;9.00;;;;;;;;3559413;39;113895;-78
2021/05/23 00:37:14;;;;;;;;;12.00;9.00;;;;;;;;3559171;39;111786;-78
2021/05/23 00:39:41;;;;;;;;;9.75;7.00;;;;;;;;3558251;39;113645;-77
2021/05/23 00:42:09;;;;;;;;;7.75;7.25;;;;;;;;3559359;39;113618;-77
2021/05/23 00:44:35;;;;;;;;;15.00;11.75;;;;;;;;3558027;39;111911;-78
2021/05/23 00:47:01;;;;;;;;;8.00;7.00;;;;;;;;3559507;39;113686;-79
2021/05/23 00:49:27;;;;;;;;;7.50;7.00;;;;;;;;3561978;39;114334;-79
2021/05/23 00:51:53;;;;;;;;;8.75;8.00;;;;;;;;3558388;39;113760;-78
2021/05/23 00:54:20;;;;;;;;;7.50;6.50;;;;;;;;3558173;39;113884;-78
2021/05/23 00:56:47;;;;;;;;;7.75;7.00;;;;;;;;3558981;39;112928;-78
2021/05/23 00:59:13;;;;;;;;;8.50;7.00;;;;;;;;3558158;39;113666;-77
2021/05/23 01:02:00;;;;;;;;;10.75;6.75;;;;;;;;3559096;39;114046;-77
2021/05/23 01:04:26;;;;;;;;;10.75;8.00;;;;;;;;3559105;39;112603;-78
2021/05/23 01:06:52;;;;;;;;;8.00;8.00;;;;;;;;3558435;39;113340;-79
2021/05/23 01:09:19;;;;;;;;;7.00;7.00;;;;;;;;3558086;39;114527;-79
2021/05/23 01:11:59;;;;;;;;;6.50;6.00;;;;;;;;3561323;39;111894;-79
2021/05/23 01:14:44;;;;;;;;;12.25;9.00;;;;;;;;3558426;39;114354;-80
2021/05/23 01:17:12;;;;;;;;;6.00;6.00;;;;;;;;3557974;39;112893;-79
2021/05/23 01:19:45;;;;;;;;;6.25;5.50;;;;;;;;3559398;39;113273;-80
2021/05/23 01:22:12;;;;;;;;;12.00;9.25;;;;;;;;3558818;39;113837;-80
2021/05/23 01:24:39;;;;;;;;;8.00;7.75;;;;;;;;3557986;39;111782;-80
2021/05/23 01:27:07;;;;;;;;;9.25;8.75;;;;;;;;3562069;39;113370;-78
2021/05/23 01:29:33;;;;;;;;;7.00;7.00;;;;;;;;3561374;39;113938;-79
2021/05/23 01:32:00;;;;;;;;;12.00;8.50;;;;;;;;3563584;39;111908;-79
2021/05/23 01:34:26;;;;;;;;;9.50;6.00;;;;;;;;3564809;39;113380;-80
2021/05/23 01:36:54;;;;;;;;;9.50;8.00;;;;;;;;3563331;39;112156;-78
2021/05/23 01:39:20;;;;;;;;;10.00;6.75;;;;;;;;3562887;39;113257;-78
2021/05/23 01:41:47;;;;;;;;;8.25;7.00;;;;;;;;3562502;39;114482;-79
2021/05/23 01:44:14;;;;;;;;;7.25;7.00;;;;;;;;3562612;39;111935;-78
2021/05/23 01:46:41;;;;;;;;;11.00;8.00;;;;;;;;3562568;39;113685;-79
2021/05/23 01:49:08;;;;;;;;;9.25;8.25;;;;;;;;3560421;39;113984;-81
2021/05/23 01:51:35;;;;;;;;;10.25;8.00;;;;;;;;3562683;39;112332;-79
2021/05/23 01:54:01;;;;;;;;;6.25;6.00;;;;;;;;3561139;39;113536;-78
2021/05/23 01:56:27;;;;;;;;;11.25;8.25;;;;;;;;3560605;39;112056;-79
2021/05/23 01:58:53;;;;;;;;;7.25;6.00;;;;;;;;3558071;39;113214;-80
2021/05/23 02:01:20;;;;;;;;;8.25;7.75;;;;;;;;3559049;39;113848;-79
2021/05/23 02:03:47;;;;;;;;;9.75;7.75;;;;;;;;3560204;39;112084;-79
2021/05/23 02:06:13;;;;;;;;;8.00;7.25;;;;;;;;3557807;39;113316;-79
2021/05/23 02:08:41;;;;;;;;;8.00;6.25;;;;;;;;3555927;39;114042;-78
2021/05/23 02:11:08;;;;;;;;;7.50;7.50;;;;;;;;3557614;39;112405;-81
2021/05/23 02:13:34;;;;;;;;;8.25;8.25;;;;;;;;3557479;39;113078;-80
2021/05/23 02:16:00;;;;;;;;;9.25;7.25;;;;;;;;3561109;39;114024;-80
2021/05/23 02:18:32;;;;;;;;;10.50;8.00;;;;;;;;3557395;39;113751;-81
2021/05/23 02:20:58;;;;;;;;;8.75;8.00;;;;;;;;3558100;39;114487;-79
2021/05/23 02:23:24;;;;;;;;;10.00;7.75;;;;;;;;3557922;39;112023;-80
2021/05/23 02:25:51;;;;;;;;;7.75;5.00;;;;;;;;3559794;39;113199;-79
2021/05/23 02:28:18;;;;;;;;;11.00;8.00;;;;;;;;3559127;39;113832;-80
2021/05/23 02:30:45;;;;;;;;;8.00;8.00;;;;;;;;3560912;39;111816;-80
2021/05/23 02:33:12;;;;;;;;;10.25;9.75;;;;;;;;3561240;39;113273;-80
2021/05/23 02:35:40;;;;;;;;;8.00;8.00;;;;;;;;3560026;39;114516;-81
2021/05/23 02:38:07;;;;;;;;;8.00;7.00;;;;;;;;3563151;39;112501;-82
2021/05/23 02:40:35;;;;;;;;;8.00;7.00;;;;;;;;3558389;39;113858;-82
2021/05/23 02:43:01;;;;;;;;;8.75;8.75;;;;;;;;3560765;39;111964;-83
2021/05/23 02:45:28;;;;;;;;;7.75;7.00;;;;;;;;3560142;39;113316;-81
2021/05/23 02:47:54;;;;;;;;;6.50;6.25;;;;;;;;3558691;39;113773;-80
2021/05/23 02:50:24;;;;;;;;;7.00;7.00;;;;;;;;3559551;39;112474;-81
2021/05/23 02:52:51;;;;;;;;;12.00;7.00;;;;;;;;3559137;39;113271;-81
2021/05/23 02:55:17;;;;;;;;;10.75;8.00;;;;;;;;3558965;39;113851;-81
2021/05/23 02:57:44;;;;;;;;;10.25;7.00;;;;;;;;3559821;39;112150;-80
2021/05/23 03:00:12;;;;;;;;;11.25;8.25;;;;;;;;3561306;39;113223;-80
2021/05/23 03:02:38;;;;;;;;;12.00;9.50;;;;;;;;3560027;39;111944;-80
2021/05/23 03:05:05;;;;;;;;;7.25;6.25;;;;;;;;3558434;39;113162;-81
2021/05/23 03:07:34;;;;;;;;;8.50;8.00;;;;;;;;3558084;39;113927;-80
2021/05/23 03:10:00;;;;;;;;;10.00;7.25;;;;;;;;3560272;39;112017;-80
2021/05/23 03:12:27;;;;;;;;;11.50;8.50;;;;;;;;3558675;39;113367;-79
2021/05/23 03:14:53;;;;;;;;;10.75;6.75;;;;;;;;3559267;39;114151;-80
2021/05/23 03:17:19;;;;;;;;;7.75;6.50;;;;;;;;3559248;39;111927;-79
2021/05/23 03:19:45;;;;;;;;;7.75;7.75;;;;;;;;3559102;39;113632;-78
2021/05/23 03:22:11;;;;;;;;;6.50;6.50;;;;;;;;3562075;39;113800;-79
2021/05/23 03:24:37;;;;;;;;;10.00;8.00;;;;;;;;3558446;39;113294;-80
2021/05/23 03:27:04;;;;;;;;;7.00;7.00;;;;;;;;3559743;39;113890;-80
2021/05/23 03:29:30;;;;;;;;;9.25;8.25;;;;;;;;3560183;39;111966;-81
2021/05/23 03:31:56;;;;;;;;;9.75;8.50;;;;;;;;3560239;39;113912;-80
2021/05/23 03:34:22;;;;;;;;;11.50;9.50;;;;;;;;3558386;39;113818;-80
2021/05/23 03:36:48;;;;;;;;;11.75;8.75;;;;;;;;3559400;39;112196;-80
2021/05/23 03:39:14;;;;;;;;;6.75;6.50;;;;;;;;3559446;39;113507;-80
2021/05/23 03:41:40;;;;;;;;;7.00;6.25;;;;;;;;3558290;39;113540;-81
2021/05/23 03:44:08;;;;;;;;;7.00;7.00;;;;;;;;3562786;39;111847;-80
2021/05/23 03:46:34;;;;;;;;;7.75;7.00;;;;;;;;3558044;39;113438;-81
2021/05/23 03:49:00;;;;;;;;;9.00;7.25;;;;;;;;3560493;39;112013;-81
2021/05/23 03:51:27;;;;;;;;;6.25;6.25;;;;;;;;3558549;39;113123;-80
2021/05/23 03:53:53;;;;;;;;;9.25;7.50;;;;;;;;3559266;39;113671;-81
2021/05/23 03:56:21;;;;;;;;;7.50;7.50;;;;;;;;3558933;39;112270;-80
2021/05/23 03:58:47;;;;;;;;;11.25;7.75;;;;;;;;3559222;39;113293;-81
2021/05/23 04:01:15;;;;;;;;;7.25;7.25;;;;;;;;3559348;39;112785;-80
2021/05/23 04:03:41;;;;;;;;;11.00;8.25;;;;;;;;3563822;39;113163;-80
2021/05/23 04:06:07;;;;;;;;;6.25;6.25;;;;;;;;3559486;39;114494;-80
2021/05/23 04:08:33;;;;;;;;;9.00;8.00;;;;;;;;3558518;39;111780;-81
2021/05/23 04:11:02;;;;;;;;;6.50;5.50;;;;;;;;3560065;39;113354;-82
2021/05/23 04:13:29;;;;;;;;;7.25;6.75;;;;;;;;3558115;39;113811;-82
2021/05/23 04:15:55;;;;;;;;;11.00;8.00;;;;;;;;3559454;39;111915;-82
2021/05/23 04:18:24;;;;;;;;;7.25;7.00;;;;;;;;3559031;39;113286;-81
2021/05/23 04:20:50;;;;;;;;;6.00;5.00;;;;;;;;3559122;39;113879;-82
2021/05/23 04:23:16;;;;;;;;;11.50;8.00;;;;;;;;3559324;39;112117;-82
2021/05/23 04:25:42;;;;;;;;;10.00;10.00;;;;;;;;3561171;39;113437;-82
2021/05/23 04:28:08;;;;;;;;;14.00;10.00;;;;;;;;3560576;39;112164;-81
2021/05/23 04:30:40;;;;;;;;;7.75;6.00;;;;;;;;3558904;39;113623;-81
2021/05/23 04:33:06;;;;;;;;;6.00;6.00;;;;;;;;3558244;39;113838;-80
2021/05/23 04:35:33;;;;;;;;;10.25;8.00;;;;;;;;3560707;39;111829;-78
2021/05/23 04:38:01;;;;;;;;;7.50;7.50;;;;;;;;3559754;39;113013;-80
2021/05/23 04:40:28;;;;;;;;;7.00;5.50;;;;;;;;3557713;39;113915;-81
2021/05/23 04:42:55;;;;;;;;;6.50;6.50;;;;;;;;3558928;39;111929;-81
2021/05/23 04:45:21;;;;;;;;;10.00;9.25;;;;;;;;3559373;39;113390;-79
2021/05/23 04:47:47;;;;;;;;;7.50;6.50;;;;;;;;3560712;39;114200;-80
2021/05/23 04:50:14;;;;;;;;;10.50;7.00;;;;;;;;3558622;39;113290;-79
2021/05/23 04:52:41;;;;;;;;;9.00;7.75;;;;;;;;3559094;39;113980;-79
2021/05/23 04:55:08;;;;;;;;;8.00;7.25;;;;;;;;3558068;39;112854;-79
2021/05/23 04:57:35;;;;;;;;;6.00;6.00;;;;;;;;3559912;39;113368;-78
2021/05/23 05:00:01;;;;;;;;;10.00;7.50;;;;;;;;3557587;39;113827;-78
2021/05/23 05:02:27;;;;;;;;;9.25;7.00;;;;;;;;3559599;39;112408;-78
2021/05/23 05:04:54;;;;;;;;;8.25;7.25;;;;;;;;3558644;39;113862;-79
2021/05/23 05:07:20;;;;;;;;;8.75;6.00;;;;;;;;3558359;39;114424;-78
2021/05/23 05:09:47;;;;;;;;;7.25;7.25;;;;;;;;3561552;39;112284;-78
2021/05/23 05:12:13;;;;;;;;;9.25;6.25;;;;;;;;3559113;39;113859;-75
2021/05/23 05:14:39;;;;;;;;;8.00;8.00;;;;;;;;3557779;39;111875;-75
2021/05/23 05:17:05;;;;;;;;;7.75;7.00;;;;;;;;3559753;39;113879;-74
2021/05/23 05:19:31;;;;;;;;;11.25;8.50;;;;;;;;3556577;39;114258;-75
2021/05/23 05:21:57;;;;;;;;;8.50;8.00;;;;;;;;3557487;39;111935;-73
2021/05/23 05:24:23;;;;;;;;;8.00;7.25;;;;;;;;3555342;39;113964;-74
2021/05/23 05:26:50;;;;;;;;;10.25;7.50;;;;;;;;3557862;39;114268;-74
2021/05/23 05:29:17;;;;;;;;;8.25;8.00;;;;;;;;3556784;39;111778;-74
2021/05/23 05:31:43;;;;;;;;;10.75;8.00;;;;;;;;3558864;39;114275;-74
2021/05/23 05:34:09;;;;;;;;;11.00;8.00;;;;;;;;3558167;39;113733;-75
2021/05/23 05:36:35;;;;;;;;;11.00;10.25;;;;;;;;3559742;39;113694;-74
2021/05/23 05:39:02;;;;;;;;;12.50;10.50;;;;;;;;3556363;39;114126;-74
2021/05/23 05:41:28;;;;;;;;;9.25;8.00;;;;;;;;3557500;39;111970;-74
2021/05/23 05:43:55;;;;;;;;;6.25;6.25;;;;;;;;3558849;39;113613;-76
2021/05/23 05:46:21;;;;;;;;;10.50;7.00;;;;;;;;3557644;39;114156;-75
2021/05/23 05:48:47;;;;;;;;;8.00;8.00;;;;;;;;3557021;39;112726;-75
2021/05/23 05:51:13;;;;;;;;;10.25;8.00;;;;;;;;3557084;39;113354;-74
2021/05/23 05:53:40;;;;;;;;;11.00;8.50;;;;;;;;3562460;39;114434;-75
2021/05/23 05:56:06;;;;;;;;;7.25;7.25;;;;;;;;3557166;39;112813;-76
2021/05/23 05:58:32;;;;;;;;;9.50;8.00;;;;;;;;3556994;39;114461;-74
2021/05/23 06:00:59;;;;;;;;;8.00;8.00;;;;;;;;3559833;39;112292;-74
2021/05/23 06:03:25;;;;;;;;;11.00;9.00;;;;;;;;3558979;39;113303;-75
2021/05/23 06:05:51;;;;;;;;;8.25;7.25;;;;;;;;3559545;39;113781;-74
2021/05/23 06:08:17;;;;;;;;;10.75;7.00;;;;;;;;3560152;39;112545;-73
2021/05/23 06:10:43;;;;;;;;;8.00;8.00;;;;;;;;3559820;39;113202;-75
2021/05/23 06:13:09;;;;;;;;;12.25;8.00;;;;;;;;3561194;39;113866;-74
2021/05/23 06:15:35;;;;;;;;;9.50;8.25;;;;;;;;3560271;39;113327;-75
2021/05/23 06:18:02;;;;;;;;;10.00;8.50;;;;;;;;3559858;39;114570;-73
2021/05/23 06:20:29;;;;;;;;;9.00;7.75;;;;;;;;3558466;39;111962;-73
2021/05/23 06:22:55;;;;;;;;;9.00;8.00;;;;;;;;3560552;39;113361;-73
2021/05/23 06:25:21;;;;;;;;;9.75;8.75;;;;;;;;3558624;39;114114;-75
2021/05/23 06:27:47;;;;;;;;;12.00;8.00;;;;;;;;3559530;39;112439;-78
2021/05/23 06:30:13;;;;;;;;;9.00;8.25;;;;;;;;3559778;39;113151;-74
2021/05/23 06:32:39;;;;;;;;;8.25;7.50;;;;;;;;3558546;39;113957;-75
2021/05/23 06:35:07;;;;;;;;;9.00;8.75;;;;;;;;3563095;39;111933;-73
2021/05/23 06:37:33;;;;;;;;;13.25;11.00;;;;;;;;3558194;39;113860;-74
2021/05/23 06:39:59;;;;;;;;;10.00;8.75;;;;;;;;3558496;39;111816;-74
2021/05/23 06:42:25;;;;;;;;;8.25;7.00;;;;;;;;3558699;39;113285;-77
2021/05/23 06:44:51;;;;;;;;;8.50;8.50;;;;;;;;3559496;39;114227;-76
2021/05/23 06:47:17;;;;;;;;;8.75;8.25;;;;;;;;3559289;39;111804;-79
2021/05/23 06:49:43;;;;;;;;;11.75;11.75;;;;;;;;3558656;39;113217;-77
2021/05/23 06:52:10;;;;;;;;;9.50;7.75;;;;;;;;3563260;39;114208;-76
2021/05/23 06:54:36;;;;;;;;;9.75;9.75;;;;;;;;3559873;39;112085;-76
2021/05/23 06:57:03;;;;;;;;;10.00;9.50;;;;;;;;3560663;39;113516;-74
2021/05/23 06:59:29;;;;;;;;;16.00;9.25;;;;;;;;3558380;39;111768;-77
2021/05/23 07:01:55;;;;;;;;;8.75;8.75;;;;;;;;3559778;39;113215;-75
2021/05/23 07:04:21;;;;;;;;;7.50;7.00;;;;;;;;3558253;39;114446;-75
2021/05/23 07:06:47;;;;;;;;;9.00;7.00;;;;;;;;3559239;39;111986;-74
2021/05/23 07:09:14;;;;;;;;;10.00;8.50;;;;;;;;3559912;39;113391;-75
2021/05/23 07:11:40;;;;;;;;;9.00;8.00;;;;;;;;3561404;39;113808;-74
2021/05/23 07:14:06;;;;;;;;;8.00;5.25;;;;;;;;3558526;39;112262;-74
2021/05/23 07:16:32;;;;;;;;;6.50;6.00;;;;;;;;3560018;39;113364;-75
2021/05/23 07:18:58;;;;;;;;;8.50;8.50;;;;;;;;3560516;39;113778;-76
2021/05/23 07:21:24;;;;;;;;;9.00;9.00;;;;;;;;3559762;39;113923;-74
2021/05/23 07:23:51;;;;;;;;;8.75;7.50;;;;;;;;3559600;39;113852;-73
2021/05/23 07:26:19;;;;;;;;;10.00;10.00;;;;;;;;3558368;39;111961;-74
2021/05/23 07:28:45;;;;;;;;;11.50;11.50;;;;;;;;3558882;39;113332;-77
2021/05/23 07:31:12;;;;;;;;;10.25;8.25;;;;;;;;3558995;39;113905;-73
2021/05/23 07:33:38;;;;;;;;;8.00;8.00;;;;;;;;3558872;39;111795;-74
2021/05/23 07:36:06;;;;;;;;;7.50;7.00;;;;;;;;3561707;39;113692;-73
2021/05/23 07:38:32;;;;;;;;;6.00;6.00;;;;;;;;3562191;39;113943;-75
2021/05/23 07:40:58;;;;;;;;;8.00;8.00;;;;;;;;3560867;39;111875;-77
2021/05/23 07:43:25;;;;;;;;;16.25;16.25;;;;;;;;3558661;39;114416;-78
2021/05/23 07:45:52;;;;;;;;;36.50;31.50;;;;;;;;3558631;39;112172;-75
2021/05/23 07:48:22;;;;;;;;;9.25;6.50;;;;;;;;3560156;39;115836;-76
2021/05/23 07:50:48;;;;;;;;;7.25;5.00;;;;;;;;3560104;39;114371;-74
2021/05/23 07:53:14;;;;;;;;;8.25;7.00;;;;;;;;3560414;39;111858;-74
2021/05/23 07:55:42;;;;;;;;;9.75;8.50;;;;;;;;3558822;39;113569;-74
2021/05/23 07:58:11;;;;;;;;;10.75;7.00;;;;;;;;3559121;39;113267;-75
2021/05/23 08:00:38;;;;;;;;;15.25;13.50;;;;;;;;3558346;39;111934;-79
2021/05/23 08:03:04;;;;;;;;;25.75;21.50;;;;;;;;3562045;39;113134;-77
2021/05/23 08:05:30;;;;;;;;;9.50;6.75;;;;;;;;3558225;39;112525;-80
2021/05/23 08:07:56;;;;;;;;;6.00;6.00;;;;;;;;3559177;39;112829;-75
2021/05/23 08:10:22;;;;;;;;;7.75;6.00;;;;;;;;3557881;39;113972;-77
2021/05/23 08:12:48;;;;;;;;;7.50;7.50;;;;;;;;3558973;39;111785;-76
2021/05/23 08:15:15;;;;;;;;;6.75;6.00;;;;;;;;3559067;39;113353;-74
2021/05/23 08:17:44;;;;;;;;;11.75;10.75;;;;;;;;3558971;39;113901;-75
2021/05/23 08:20:11;;;;;;;;;8.50;7.75;;;;;;;;3559910;39;113500;-75
2021/05/23 08:22:37;;;;;;;;;10.00;7.00;;;;;;;;3561400;39;113750;-75
2021/05/23 08:25:03;;;;;;;;;9.00;6.50;;;;;;;;3557701;39;112027;-78
2021/05/23 08:27:29;;;;;;;;;9.00;7.00;;;;;;;;3560365;39;113603;-80
2021/05/23 08:29:55;;;;;;;;;6.50;5.25;;;;;;;;3557572;39;114007;-83
2021/05/23 08:32:23;;;;;;;;;5.00;5.00;;;;;;;;3561546;39;112480;-80
2021/05/23 08:34:50;;;;;;;;;7.25;7.00;;;;;;;;3558912;39;113877;-77
2021/05/23 08:37:17;;;;;;;;;7.00;6.25;;;;;;;;3558156;39;113871;-74
2021/05/23 08:39:43;;;;;;;;;8.00;6.00;;;;;;;;3559244;39;112356;-76
2021/05/23 08:42:09;;;;;;;;;8.00;6.00;;;;;;;;3558013;39;114097;-75
2021/05/23 08:44:35;;;;;;;;;7.50;6.50;;;;;;;;3561938;39;113698;-77
2021/05/23 08:47:01;;;;;;;;;7.75;7.00;;;;;;;;3558159;39;113215;-78
2021/05/23 08:49:28;;;;;;;;;5.00;5.00;;;;;;;;3560608;39;113826;-78
2021/05/23 08:51:56;;;;;;;;;6.00;5.00;;;;;;;;3561247;39;112253;-78
2021/05/23 08:54:23;;;;;;;;;7.00;7.00;;;;;;;;3559249;39;113897;-75
2021/05/23 08:56:50;;;;;;;;;6.00;5.00;;;;;;;;3558172;39;113904;-77
2021/05/23 08:59:16;;;;;;;;;5.00;5.00;;;;;;;;3558768;39;111761;-75
2021/05/23 09:01:43;;;;;;;;;4.00;4.00;;;;;;;;3558774;39;113367;-77
2021/05/23 09:04:15;;;;;;;;;5.00;5.00;;;;;;;;3557854;39;114508;-74
2021/05/23 09:06:41;;;;;;;;;9.00;5.00;;;;;;;;3561883;39;111901;-76
2021/05/23 09:09:08;;;;;;;;;6.67;5.33;;;;;;;;3557345;39;113929;-75
2021/05/23 09:11:35;;;;;;;;;9.00;7.00;;;;;;;;3559442;39;111762;-75
2021/05/23 09:14:01;;;;;;;;;7.67;6.00;;;;;;;;3557917;39;113513;-72
2021/05/23 09:16:36;;;;;;;;;7.00;7.00;;;;;;;;3558432;39;114269;-74
2021/05/23 09:19:02;;;;;;;;;9.33;7.00;;;;;;;;3555649;39;112749;-75
2021/05/23 09:21:28;;;;;;;;;9.67;7.67;;;;;;;;3556714;39;113644;-75
2021/05/23 09:23:55;;;;;;;;;5.00;5.00;;;;;;;;3556929;39;114114;-75
2021/05/23 09:26:24;;;;;;;;;9.00;8.33;;;;;;;;3555244;39;112091;-74
2021/05/23 09:28:50;;;;;;;;;5.00;5.00;;;;;;;;3559634;39;113450;-73
2021/05/23 09:31:18;;;;;;;;;11.00;8.67;;;;;;;;3558127;39;111954;-74
2021/05/23 09:33:46;;;;;;;;;6.33;6.00;;;;;;;;3558976;39;113386;-73
2021/05/23 09:36:12;;;;;;;;;7.00;4.33;;;;;;;;3559424;39;114301;-74
2021/05/23 09:38:50;;;;;;;;;6.00;6.00;;;;;;;;3558286;39;112153;-75
2021/05/23 09:41:20;;;;;;;;;7.33;7.33;;;;;;;;3559641;39;113486;-75
2021/05/23 09:43:47;;;;;;;;;7.33;5.67;;;;;;;;3558878;39;113902;-73
2021/05/23 09:46:15;;;;;;;;;6.75;6.00;;;;;;;;3559673;39;112057;-74
2021/05/23 09:48:48;;;;;;;;;8.75;6.25;;;;;;;;3558841;39;113701;-75
2021/05/23 09:51:15;;;;;;;;;7.75;7.25;;;;;;;;3561895;39;113647;-76
2021/05/23 09:53:47;;;;;;;;;8.00;7.00;;;;;;;;3558937;39;113335;-74
2021/05/23 09:56:16;;;;;;;;;8.00;7.00;;;;;;;;3559343;39;114463;-74
2021/05/23 09:58:47;;;;;;;;;2.00;2.00;;;;;;;;3558957;39;112170;-75
2021/05/23 10:01:24;;;;;;;;;6.67;5.00;;;;;;;;3559635;39;113800;-76
2021/05/23 10:03:53;;;;;;;;;7.00;4.67;;;;;;;;3559232;39;113156;-74
2021/05/23 10:06:25;;;;;;;;;7.67;6.00;;;;;;;;3559387;39;112133;-74
2021/05/23 10:08:52;;;;;;;;;5.50;5.50;;;;;;;;3559653;39;113761;-74
2021/05/23 10:11:18;;;;;;;;;6.75;6.00;;;;;;;;3559014;39;113878;-74
2021/05/23 10:13:44;;;;;;;;;7.00;6.00;;;;;;;;3561510;39;111943;-76
2021/05/23 10:16:10;;;;;;;;;9.67;6.00;;;;;;;;3558695;39;114225;-75
2021/05/23 10:18:38;;;;;;;;;8.00;7.00;;;;;;;;3558180;39;111973;-74
2021/05/23 10:21:05;;;;;;;;;9.00;6.33;;;;;;;;3560292;39;113244;-77
2021/05/23 10:23:32;;;;;;;;;7.75;7.75;;;;;;;;3558113;39;113902;-78
2021/05/23 10:26:00;;;;;;;;;6.33;5.33;;;;;;;;3560089;39;111973;-77
2021/05/23 10:28:26;;;;;;;;;7.50;7.50;;;;;;;;3558616;39;113733;-78
2021/05/23 10:30:54;;;;;;;;;7.50;6.00;;;;;;;;3559254;39;113933;-76
2021/05/23 10:33:21;;;;;;;;;7.33;5.00;;;;;;;;3561870;39;112109;-76
2021/05/23 10:35:49;;;;;;;;;8.50;8.00;;;;;;;;3558845;39;114161;-76
2021/05/23 10:38:17;;;;;;;;;6.75;6.00;;;;;;;;3559329;39;112685;-76
2021/05/23 10:40:55;;;;;;;;;7.75;6.50;;;;;;;;3558756;39;114537;-77
2021/05/23 10:43:23;;;;;;;;;9.50;8.50;;;;;;;;3558357;39;114267;-76
2021/05/23 10:45:50;;;;;;;;;5.00;5.00;;;;;;;;3558986;39;112098;-77
2021/05/23 10:48:16;;;;;;;;;5.25;5.00;;;;;;;;3559310;39;113395;-78
2021/05/23 10:50:44;;;;;;;;;7.00;6.00;;;;;;;;3558301;39;114968;-79
2021/05/23 10:53:11;;;;;;;;;7.75;6.75;;;;;;;;3559942;39;112187;-78
2021/05/23 10:55:47;;;;;;;;;6.00;5.00;;;;;;;;3560539;39;113417;-77
2021/05/23 10:58:20;;;;;;;;;6.50;6.50;;;;;;;;3560485;39;111974;-78
2021/05/23 11:00:50;;;;;;;;;8.50;7.00;;;;;;;;3559300;39;113516;-77
2021/05/23 11:03:17;;;;;;;;;7.00;5.00;;;;;;;;3558826;39;114748;-77
2021/05/23 11:05:44;;;;;;;;;3.50;3.50;;;;;;;;3559345;39;112711;-77
2021/05/23 11:08:12;;;;;;;;;9.50;6.25;;;;;;;;3558548;39;113902;-76
2021/05/23 11:10:40;;;;;;;;;8.25;6.50;;;;;;;;3558973;39;113899;-77
2021/05/23 11:13:06;;;;;;;;;8.00;7.00;;;;;;;;3558358;39;111910;-78
2021/05/23 11:15:40;;;;;;;;;7.00;6.25;;;;;;;;3559781;39;113302;-77
2021/05/23 11:18:06;;;;;;;;;6.25;5.75;;;;;;;;3560463;39;114435;-77
2021/05/23 11:20:32;;;;;;;;;8.00;6.00;;;;;;;;3559758;39;113917;-77
2021/05/23 11:23:00;;;;;;;;;6.25;6.25;;;;;;;;3557816;39;113623;-78
2021/05/23 11:25:28;;;;;;;;;7.25;6.75;;;;;;;;3559596;39;112151;-77
2021/05/23 11:27:55;;;;;;;;;7.25;6.00;;;;;;;;3558557;39;113225;-77
2021/05/23 11:30:21;;;;;;;;;5.25;5.25;;;;;;;;3558737;39;114433;-76
2021/05/23 11:32:47;;;;;;;;;7.00;6.00;;;;;;;;3558930;39;111923;-77
2021/05/23 11:35:21;;;;;;;;;4.50;3.00;;;;;;;;3558911;39;113322;-77
2021/05/23 11:37:52;;;;;;;;;6.75;5.50;;;;;;;;3558247;39;114365;-77
2021/05/23 11:40:18;;;;;;;;;8.50;8.00;;;;;;;;3561695;39;111828;-77
2021/05/23 11:42:45;;;;;;;;;6.25;5.25;;;;;;;;3556506;39;113073;-77
2021/05/23 11:45:18;;;;;;;;;6.25;6.25;;;;;;;;3558688;39;112042;-78
2021/05/23 11:47:45;;;;;;;;;7.00;7.00;;;;;;;;3559168;39;113293;-78
2021/05/23 11:50:20;;;;;;;;;7.75;6.00;;;;;;;;3558190;39;113921;-78
2021/05/23 11:52:54;;;;;;;;;6.50;5.25;;;;;;;;3558804;39;111972;-77
2021/05/23 11:55:20;;;;;;;;;5.00;5.00;;;;;;;;3558853;39;113299;-78
2021/05/23 11:57:49;;;;;;;;;5.00;5.00;;;;;;;;3557956;39;114131;-80
2021/05/23 12:00:17;;;;;;;;;7.00;6.00;;;;;;;;3558965;39;112040;-79
2021/05/23 12:02:45;;;;;;;;;5.50;5.00;;;;;;;;3561115;39;113198;-79
2021/05/23 12:05:11;;;;;;;;;5.00;5.00;;;;;;;;3558694;39;111770;-79
2021/05/23 12:07:38;;;;;;;;;8.00;6.25;;;;;;;;3559361;39;113635;-78
2021/05/23 12:10:04;;;;;;;;;6.75;6.00;;;;;;;;3559606;39;113970;-78
2021/05/23 12:12:31;;;;;;;;;7.00;5.25;;;;;;;;3557899;39;112130;-78
2021/05/23 12:14:58;;;;;;;;;8.50;6.50;;;;;;;;3559601;39;112960;-77
2021/05/23 12:17:24;;;;;;;;;6.50;6.00;;;;;;;;3557725;39;116703;-79
2021/05/23 12:19:53;;;;;;;;;8.50;6.00;;;;;;;;3559101;39;111841;-79
2021/05/23 12:22:20;;;;;;;;;6.75;6.75;;;;;;;;3558681;39;113187;-79
2021/05/23 12:24:46;;;;;;;;;7.00;6.75;;;;;;;;3560924;39;111800;-79
2021/05/23 12:27:22;;;;;;;;;6.00;6.00;;;;;;;;3558917;39;113383;-79
2021/05/23 12:29:48;;;;;;;;;6.50;5.25;;;;;;;;3558499;39;114387;-78
2021/05/23 12:32:15;;;;;;;;;7.00;5.25;;;;;;;;3558849;39;111898;-78
2021/05/23 12:34:44;;;;;;;;;4.75;4.00;;;;;;;;3558375;39;113252;-79
2021/05/23 12:37:10;;;;;;;;;5.25;4.00;;;;;;;;3558567;39;114290;-79
2021/05/23 12:39:37;;;;;;;;;3.75;3.75;;;;;;;;3558074;39;111912;-77
2021/05/23 12:42:04;;;;;;;;;5.50;3.75;;;;;;;;3559509;39;113543;-78
2021/05/23 12:44:31;;;;;;;;;4.50;3.50;;;;;;;;3560067;39;114056;-77
2021/05/23 12:47:08;;;;;;;;;4.25;2.25;;;;;;;;3558140;39;113999;-77
2021/05/23 12:49:36;;;;;;;;;4.00;3.00;;;;;;;;3557512;39;113911;-77
2021/05/23 12:52:07;;;;;;;;;4.75;3.50;;;;;;;;3559620;39;111812;-79
2021/05/23 12:54:34;;;;;;;;;5.25;5.00;;;;;;;;3557599;39;113346;-78
2021/05/23 12:57:05;;;;;;;;;5.75;4.00;;;;;;;;3559215;39;114360;-79
2021/05/23 12:59:36;;;;;;;;;3.75;2.50;;;;;;;;3557722;39;111888;-79
2021/05/23 13:02:03;;;;;;;;;5.50;5.25;;;;;;;;3557837;39;113575;-79
2021/05/23 13:04:30;;;;;;;;;5.00;5.00;;;;;;;;3558801;39;116546;-78
2021/05/23 13:06:59;;;;;;;;;5.50;5.00;;;;;;;;3560398;39;112532;-79
2021/05/23 13:09:30;;;;;;;;;9.25;5.00;;;;;;;;3559156;39;114219;-79
2021/05/23 13:11:57;;;;;;;;;5.50;4.50;;;;;;;;3557692;39;111741;-79
2021/05/23 13:14:24;;;;;;;;;4.50;4.50;;;;;;;;3559012;39;113678;-79
2021/05/23 13:16:51;;;;;;;;;3.75;3.75;;;;;;;;3557523;39;114319;-79
2021/05/23 13:19:20;;;;;;;;;3.75;3.75;;;;;;;;3559126;39;111950;-78
2021/05/23 13:21:49;;;;;;;;;4.00;2.75;;;;;;;;3559513;39;113538;-79
2021/05/23 13:24:17;;;;;;;;;4.50;3.00;;;;;;;;3557965;39;114070;-79
2021/05/23 13:26:46;;;;;;;;;4.75;4.25;;;;;;;;3558408;39;112469;-77
2021/05/23 13:29:13;;;;;;;;;3.00;1.50;;;;;;;;3561052;39;113472;-77
2021/05/23 13:31:39;;;;;;;;;5.00;4.00;;;;;;;;3558445;39;111904;-78
2021/05/23 13:34:05;;;;;;;;;3.00;3.00;;;;;;;;3559079;39;113679;-78
2021/05/23 13:36:31;;;;;;;;;3.75;3.75;;;;;;;;3556951;39;113599;-79
2021/05/23 13:39:00;;;;;;;;;3.75;3.00;;;;;;;;3559058;39;112077;-77
2021/05/23 13:41:28;;;;;;;;;4.75;4.75;;;;;;;;3557429;39;113989;-79
2021/05/23 13:43:54;;;;;;;;;5.75;3.25;;;;;;;;3558478;39;115631;-79
2021/05/23 13:46:20;;;;;;;;;5.00;5.00;;;;;;;;3557778;39;111826;-79
2021/05/23 13:48:46;;;;;;;;;5.00;3.25;;;;;;;;3558403;39;113571;-79
2021/05/23 13:51:15;;;;;;;;;5.25;4.75;;;;;;;;3560603;39;113987;-79
2021/05/23 13:53:41;;;;;;;;;0.00;0.00;;;;;;;;3558163;39;113446;-79
2021/05/23 13:56:08;;;;;;;;;5.00;4.00;;;;;;;;3558409;39;113867;-82
2021/05/23 13:58:35;;;;;;;;;5.25;4.25;;;;;;;;3557134;39;111954;-74
2021/05/23 14:01:01;;;;;;;;;7.50;5.00;;;;;;;;3561323;39;113459;-77
2021/05/23 14:03:27;;;;;;;;;6.75;5.00;;;;;;;;3556913;39;114394;-76
2021/05/23 14:05:55;;;;;;;;;5.75;4.50;;;;;;;;3558867;39;112021;-76
2021/05/23 14:08:22;;;;;;;;;5.00;4.00;;;;;;;;3559344;39;113326;-76
2021/05/23 14:10:48;;;;;;;;;4.00;4.00;;;;;;;;3557604;39;113899;-76
2021/05/23 14:13:14;;;;;;;;;4.25;4.25;;;;;;;;3561195;39;113074;-77
2021/05/23 14:15:41;;;;;;;;;6.00;4.75;;;;;;;;3557949;39;113898;-78
2021/05/23 14:18:07;;;;;;;;;4.00;4.00;;;;;;;;3557920;39;112260;-75
2021/05/23 14:20:34;;;;;;;;;5.00;4.00;;;;;;;;3559710;39;113618;-76
2021/05/23 14:23:02;;;;;;;;;3.00;3.00;;;;;;;;3559800;39;113642;-76
2021/05/23 14:25:28;;;;;;;;;7.50;5.00;;;;;;;;3558756;39;112069;-76